Time;durP1;ratioP1;P1;durP2;ratioP2;P2;SDS_P1;SDS_P2;PMS_P1;PMS_P2;Temp;Humidity;BMP_temperature;BMP_pressure;BME280_temperature;BME280_humidity;BME280_pressure;Samples;Min_cycle;Max_cycle;Signal;HPM_P1;HPM_P2
2023/06/07 00:02:18;;;;;;;;;18.00;14.67;;;;;;;;5016895;28;45402;-76
2023/06/07 00:04:45;;;;;;;;;19.00;15.00;;;;;;;;5017246;28;45381;-77
2023/06/07 00:07:10;;;;;;;;;20.00;14.33;;;;;;;;5008572;28;45668;-75
2023/06/07 00:09:35;;;;;;;;;23.33;19.00;;;;;;;;5016812;28;45504;-76
2023/06/07 00:12:01;;;;;;;;;16.00;15.00;;;;;;;;5016018;28;46503;-77
2023/06/07 00:14:26;;;;;;;;;18.67;18.00;;;;;;;;5014977;28;45409;-75
2023/06/07 00:16:52;;;;;;;;;17.00;13.33;;;;;;;;5016353;28;45504;-77
2023/06/07 00:19:25;;;;;;;;;18.00;16.33;;;;;;;;5014532;28;45827;-76
2023/06/07 00:21:51;;;;;;;;;17.00;14.67;;;;;;;;5013428;28;47320;-78
2023/06/07 00:24:16;;;;;;;;;16.33;14.33;;;;;;;;5011334;28;46482;-75
2023/06/07 00:26:42;;;;;;;;;22.33;22.33;;;;;;;;5005077;28;45502;-75
2023/06/07 00:29:07;;;;;;;;;18.00;15.67;;;;;;;;5015187;28;45890;-76
2023/06/07 00:31:32;;;;;;;;;18.00;16.33;;;;;;;;5008820;28;46818;-75
2023/06/07 00:33:57;;;;;;;;;16.00;16.00;;;;;;;;5011163;28;45488;-77
2023/06/07 00:36:23;;;;;;;;;18.00;16.33;;;;;;;;5009970;28;45855;-77
2023/06/07 00:38:50;;;;;;;;;13.67;11.67;;;;;;;;5015189;28;45848;-81
2023/06/07 00:41:15;;;;;;;;;12.67;12.67;;;;;;;;5009258;28;45559;-76
2023/06/07 00:43:40;;;;;;;;;18.67;17.33;;;;;;;;5014599;28;45434;-76
2023/06/07 00:46:06;;;;;;;;;19.67;17.00;;;;;;;;5016151;28;45340;-77
2023/06/07 00:48:31;;;;;;;;;18.00;16.00;;;;;;;;5015831;28;45625;-75
2023/06/07 00:50:57;;;;;;;;;21.67;16.67;;;;;;;;5005539;28;46401;-77
2023/06/07 00:53:22;;;;;;;;;21.33;12.67;;;;;;;;5010115;28;45423;-77
2023/06/07 00:55:47;;;;;;;;;14.00;12.00;;;;;;;;5015309;28;45468;-77
2023/06/07 00:58:13;;;;;;;;;17.67;15.67;;;;;;;;5016160;28;45407;-76
2023/06/07 01:00:38;;;;;;;;;18.67;14.67;;;;;;;;5013789;28;47021;-78
2023/06/07 01:03:05;;;;;;;;;16.00;13.00;;;;;;;;5006227;28;45821;-77
2023/06/07 01:05:30;;;;;;;;;17.67;16.67;;;;;;;;5013720;28;45825;-78
2023/06/07 01:07:56;;;;;;;;;24.33;14.33;;;;;;;;5015245;28;45911;-77
2023/06/07 01:10:21;;;;;;;;;16.00;15.67;;;;;;;;5002693;28;45914;-76
2023/06/07 01:12:47;;;;;;;;;20.33;16.67;;;;;;;;5012035;28;45603;-76
2023/06/07 01:15:13;;;;;;;;;20.33;19.00;;;;;;;;5013351;28;45942;-75
2023/06/07 01:17:44;;;;;;;;;16.00;15.00;;;;;;;;4997866;28;45467;-76
2023/06/07 01:20:12;;;;;;;;;20.00;15.67;;;;;;;;5012737;28;45416;-75
2023/06/07 01:22:42;;;;;;;;;25.67;22.67;;;;;;;;5013941;28;45577;-76
2023/06/07 01:25:07;;;;;;;;;17.33;15.00;;;;;;;;5015061;28;45718;-75
2023/06/07 01:27:33;;;;;;;;;17.00;15.00;;;;;;;;5014921;28;45461;-75
2023/06/07 01:29:59;;;;;;;;;24.33;18.67;;;;;;;;5007751;28;45336;-75
2023/06/07 01:32:25;;;;;;;;;18.33;15.00;;;;;;;;5003689;28;45776;-76
2023/06/07 01:34:51;;;;;;;;;23.00;16.33;;;;;;;;5010118;28;45723;-77
2023/06/07 01:37:17;;;;;;;;;22.67;16.00;;;;;;;;5007306;28;45440;-74
2023/06/07 01:39:44;;;;;;;;;14.67;13.67;;;;;;;;5015283;28;45849;-75
2023/06/07 01:42:10;;;;;;;;;21.33;17.33;;;;;;;;5007212;28;45492;-75
2023/06/07 01:44:36;;;;;;;;;16.00;16.00;;;;;;;;5015087;28;45532;-76
2023/06/07 01:47:02;;;;;;;;;15.67;15.67;;;;;;;;5012653;28;45542;-77
2023/06/07 01:49:27;;;;;;;;;20.67;15.67;;;;;;;;5004246;28;45393;-76
2023/06/07 01:51:53;;;;;;;;;17.00;14.67;;;;;;;;5013235;28;45565;-78
2023/06/07 01:54:18;;;;;;;;;16.00;15.67;;;;;;;;5008253;28;45514;-77
2023/06/07 01:56:55;;;;;;;;;10.67;7.67;;;;;;;;5010151;28;45674;-76
2023/06/07 01:59:53;;;;;;;;;28.00;23.00;;;;;;;;5013231;28;47738;-77
2023/06/07 02:02:32;;;;;;;;;17.67;14.33;;;;;;;;4978695;28;45797;-76
2023/06/07 02:05:01;;;;;;;;;18.00;15.33;;;;;;;;5002126;28;45428;-75
2023/06/07 02:07:28;;;;;;;;;20.00;17.67;;;;;;;;5001765;28;45589;-74
2023/06/07 02:09:54;;;;;;;;;23.67;20.67;;;;;;;;5013260;28;47430;-76
2023/06/07 02:12:20;;;;;;;;;13.00;11.33;;;;;;;;5010467;28;45743;-76
2023/06/07 02:14:52;;;;;;;;;19.00;16.00;;;;;;;;5008557;28;45373;-77
2023/06/07 02:17:17;;;;;;;;;24.33;19.67;;;;;;;;5002608;28;45443;-75
2023/06/07 02:19:43;;;;;;;;;19.67;16.00;;;;;;;;5002049;28;46741;-77
2023/06/07 02:22:08;;;;;;;;;24.67;20.00;;;;;;;;4992757;28;45413;-76
2023/06/07 02:24:34;;;;;;;;;22.67;19.67;;;;;;;;5000016;28;45914;-76
2023/06/07 02:27:00;;;;;;;;;21.00;15.00;;;;;;;;5004116;28;45968;-76
2023/06/07 02:29:25;;;;;;;;;14.33;14.33;;;;;;;;4993510;28;46346;-75
2023/06/07 02:31:52;;;;;;;;;23.00;19.00;;;;;;;;5001624;28;45859;-75
2023/06/07 02:34:17;;;;;;;;;26.00;19.67;;;;;;;;5007043;28;45429;-75
2023/06/07 02:36:43;;;;;;;;;21.67;17.67;;;;;;;;5007305;28;46320;-74
2023/06/07 02:39:08;;;;;;;;;17.33;15.33;;;;;;;;5014140;28;47064;-75
2023/06/07 02:41:35;;;;;;;;;27.33;22.67;;;;;;;;5001347;28;45525;-75
2023/06/07 02:44:00;;;;;;;;;29.00;22.67;;;;;;;;5012330;28;45840;-76
2023/06/07 02:46:26;;;;;;;;;19.33;18.00;;;;;;;;5008627;28;45470;-75
2023/06/07 02:48:51;;;;;;;;;22.33;15.33;;;;;;;;5012198;28;45916;-76
2023/06/07 02:51:16;;;;;;;;;22.33;18.33;;;;;;;;4993815;28;45739;-75
2023/06/07 02:53:44;;;;;;;;;17.00;16.33;;;;;;;;5008682;28;45837;-75
2023/06/07 02:56:10;;;;;;;;;24.00;18.67;;;;;;;;5009391;28;46317;-74
2023/06/07 02:58:36;;;;;;;;;23.67;18.00;;;;;;;;5011959;28;47023;-77
2023/06/07 03:01:07;;;;;;;;;19.33;18.33;;;;;;;;5014225;28;45674;-75
2023/06/07 03:03:32;;;;;;;;;22.33;20.00;;;;;;;;5007219;28;45987;-74
2023/06/07 03:05:59;;;;;;;;;20.67;17.00;;;;;;;;5013660;28;46049;-76
2023/06/07 03:08:24;;;;;;;;;30.33;23.00;;;;;;;;5007535;28;45422;-75
2023/06/07 03:10:49;;;;;;;;;30.67;22.33;;;;;;;;5007166;28;45453;-76
2023/06/07 03:13:15;;;;;;;;;27.00;22.67;;;;;;;;5010317;28;45600;-74
2023/06/07 03:15:40;;;;;;;;;25.00;17.33;;;;;;;;5003830;28;45613;-76
2023/06/07 03:18:05;;;;;;;;;26.00;23.33;;;;;;;;5004263;28;45446;-77
2023/06/07 03:20:34;;;;;;;;;28.33;24.33;;;;;;;;4997905;28;45564;-77
2023/06/07 03:23:00;;;;;;;;;22.33;19.00;;;;;;;;5013756;28;45351;-77
2023/06/07 03:25:25;;;;;;;;;27.67;25.67;;;;;;;;5011751;28;45765;-77
2023/06/07 03:27:50;;;;;;;;;23.33;18.33;;;;;;;;5005457;28;45713;-78
2023/06/07 03:30:16;;;;;;;;;26.00;21.33;;;;;;;;5013594;28;45454;-77
2023/06/07 03:32:41;;;;;;;;;22.33;20.67;;;;;;;;5012467;28;45378;-77
2023/06/07 03:35:07;;;;;;;;;22.33;21.67;;;;;;;;5011611;28;45705;-77
2023/06/07 03:37:32;;;;;;;;;24.33;18.00;;;;;;;;5000459;28;45407;-76
2023/06/07 03:39:58;;;;;;;;;21.33;19.00;;;;;;;;5012409;28;45814;-78
2023/06/07 03:42:23;;;;;;;;;23.00;22.33;;;;;;;;5007036;28;45520;-77
2023/06/07 03:44:48;;;;;;;;;25.00;21.67;;;;;;;;5004418;28;45683;-79
2023/06/07 03:47:13;;;;;;;;;22.67;18.33;;;;;;;;5012858;28;45429;-78
2023/06/07 03:49:39;;;;;;;;;26.00;23.67;;;;;;;;5004788;28;45372;-77
2023/06/07 03:52:04;;;;;;;;;31.00;24.00;;;;;;;;5007578;28;45600;-77
2023/06/07 03:54:32;;;;;;;;;23.67;19.33;;;;;;;;5012263;28;45846;-79
2023/06/07 03:56:57;;;;;;;;;30.00;24.33;;;;;;;;5008371;28;47366;-78
2023/06/07 03:59:23;;;;;;;;;29.00;23.00;;;;;;;;5013543;28;45438;-79
2023/06/07 04:01:49;;;;;;;;;25.33;24.33;;;;;;;;5004175;28;45477;-77
2023/06/07 04:04:14;;;;;;;;;28.00;24.33;;;;;;;;5002896;28;45690;-77
2023/06/07 04:06:39;;;;;;;;;27.00;21.67;;;;;;;;5015183;28;45889;-81
2023/06/07 04:09:06;;;;;;;;;23.33;20.67;;;;;;;;5014312;28;45557;-82
2023/06/07 04:11:32;;;;;;;;;31.00;25.67;;;;;;;;5013424;28;45747;-79
2023/06/07 04:13:57;;;;;;;;;24.33;23.00;;;;;;;;5014156;28;45454;-80
2023/06/07 04:16:22;;;;;;;;;23.33;17.33;;;;;;;;5001692;28;45424;-80
2023/06/07 04:18:48;;;;;;;;;24.67;21.00;;;;;;;;5006505;28;45797;-81
2023/06/07 04:21:13;;;;;;;;;23.67;19.00;;;;;;;;5003166;28;45504;-83
2023/06/07 04:23:39;;;;;;;;;26.33;22.33;;;;;;;;5013521;28;45419;-84
2023/06/07 04:26:06;;;;;;;;;29.33;25.00;;;;;;;;5016789;28;46314;-81
2023/06/07 04:28:32;;;;;;;;;26.33;24.33;;;;;;;;5015996;28;45461;-81
2023/06/07 04:30:58;;;;;;;;;35.67;27.67;;;;;;;;5019124;28;45552;-81
2023/06/07 04:33:23;;;;;;;;;22.00;17.33;;;;;;;;5019075;28;45712;-83
2023/06/07 04:35:50;;;;;;;;;22.33;22.00;;;;;;;;5017505;28;46255;-82
2023/06/07 04:38:20;;;;;;;;;37.00;32.67;;;;;;;;5014879;28;45915;-81
2023/06/07 04:40:49;;;;;;;;;19.33;18.67;;;;;;;;5015135;28;45635;-82
2023/06/07 04:43:17;;;;;;;;;23.00;20.67;;;;;;;;5000389;28;45380;-80
2023/06/07 04:45:43;;;;;;;;;30.33;23.33;;;;;;;;5014862;28;45420;-82
2023/06/07 04:48:11;;;;;;;;;32.67;25.33;;;;;;;;5017072;28;45477;-81
2023/06/07 04:50:38;;;;;;;;;24.00;20.67;;;;;;;;5015172;28;45393;-79
2023/06/07 04:53:04;;;;;;;;;28.33;24.67;;;;;;;;5016411;28;45357;-82
2023/06/07 04:55:30;;;;;;;;;35.67;28.67;;;;;;;;5007882;28;47448;-82
2023/06/07 04:57:55;;;;;;;;;25.33;22.33;;;;;;;;5016473;28;45412;-81
2023/06/07 05:00:22;;;;;;;;;29.67;24.00;;;;;;;;5007611;28;45556;-80
2023/06/07 05:02:48;;;;;;;;;27.67;25.67;;;;;;;;5011284;28;45561;-82
2023/06/07 05:05:14;;;;;;;;;29.33;26.33;;;;;;;;5014878;28;46941;-80
2023/06/07 05:07:41;;;;;;;;;27.67;20.67;;;;;;;;5015284;28;45504;-81
2023/06/07 05:10:06;;;;;;;;;28.33;27.67;;;;;;;;5012092;28;45859;-81
2023/06/07 05:12:32;;;;;;;;;30.67;27.00;;;;;;;;5007915;28;45816;-84
2023/06/07 05:14:57;;;;;;;;;26.67;26.00;;;;;;;;5017497;28;46305;-80
2023/06/07 05:17:23;;;;;;;;;24.33;21.33;;;;;;;;5015052;28;45550;-76
2023/06/07 05:19:49;;;;;;;;;30.33;23.67;;;;;;;;5014587;28;45498;-76
2023/06/07 05:22:14;;;;;;;;;35.67;27.33;;;;;;;;5007091;28;45938;-75
2023/06/07 05:24:39;;;;;;;;;25.00;18.67;;;;;;;;5006303;28;45669;-76
2023/06/07 05:27:06;;;;;;;;;32.00;26.33;;;;;;;;5008881;28;45676;-78
2023/06/07 05:29:31;;;;;;;;;37.67;28.00;;;;;;;;5013150;28;45643;-76
2023/06/07 05:31:56;;;;;;;;;24.00;20.33;;;;;;;;5013854;28;45991;-76
2023/06/07 05:34:22;;;;;;;;;28.67;25.00;;;;;;;;5013063;28;47926;-76
2023/06/07 05:36:47;;;;;;;;;31.33;28.00;;;;;;;;5012069;28;45767;-76
2023/06/07 05:39:13;;;;;;;;;34.33;27.67;;;;;;;;5013937;28;45709;-79
2023/06/07 05:41:38;;;;;;;;;35.67;25.33;;;;;;;;5013553;28;45475;-78
2023/06/07 05:44:03;;;;;;;;;34.00;27.00;;;;;;;;5015115;28;45618;-76
2023/06/07 05:46:29;;;;;;;;;33.67;30.67;;;;;;;;5005982;28;45495;-77
2023/06/07 05:48:54;;;;;;;;;20.33;16.00;;;;;;;;5007316;28;45680;-76
2023/06/07 05:51:19;;;;;;;;;30.00;24.67;;;;;;;;5009392;28;47174;-76
2023/06/07 05:53:45;;;;;;;;;33.00;29.00;;;;;;;;5012104;28;45844;-78
2023/06/07 05:56:13;;;;;;;;;31.67;22.67;;;;;;;;5014479;28;45420;-76
2023/06/07 05:58:38;;;;;;;;;33.00;29.67;;;;;;;;5013110;28;45368;-85
2023/06/07 06:01:07;;;;;;;;;38.33;31.33;;;;;;;;5017408;28;45653;-83
2023/06/07 06:03:32;;;;;;;;;31.00;27.33;;;;;;;;5014151;28;45760;-78
2023/06/07 06:05:58;;;;;;;;;36.33;28.33;;;;;;;;5010475;28;45779;-79
2023/06/07 06:08:23;;;;;;;;;32.67;29.67;;;;;;;;5012674;28;45498;-76
2023/06/07 06:10:48;;;;;;;;;34.00;28.67;;;;;;;;5003083;28;46049;-78
2023/06/07 06:13:13;;;;;;;;;29.67;25.33;;;;;;;;5002542;28;47109;-76
2023/06/07 06:15:39;;;;;;;;;29.00;25.33;;;;;;;;5000352;28;45925;-77
2023/06/07 06:18:10;;;;;;;;;31.33;28.00;;;;;;;;4966862;28;45455;-72
2023/06/07 06:20:36;;;;;;;;;30.33;25.00;;;;;;;;4990295;28;46089;-76
2023/06/07 06:23:03;;;;;;;;;31.00;25.67;;;;;;;;5003605;28;46114;-76
2023/06/07 06:25:29;;;;;;;;;28.33;24.00;;;;;;;;4994777;28;45896;-77
2023/06/07 06:27:55;;;;;;;;;36.33;32.00;;;;;;;;5002999;28;45483;-75
2023/06/07 06:30:20;;;;;;;;;27.00;25.67;;;;;;;;4997203;28;46425;-76
2023/06/07 06:32:46;;;;;;;;;31.00;25.00;;;;;;;;4994564;28;45671;-78
2023/06/07 06:35:12;;;;;;;;;29.33;23.00;;;;;;;;4998459;28;45666;-83
2023/06/07 06:37:37;;;;;;;;;19.00;15.67;;;;;;;;5001863;28;45557;-82
2023/06/07 06:40:04;;;;;;;;;28.67;26.33;;;;;;;;5000380;28;45596;-79
2023/06/07 06:42:29;;;;;;;;;31.00;24.00;;;;;;;;4998947;28;48097;-80
2023/06/07 06:44:55;;;;;;;;;29.67;25.33;;;;;;;;5000439;28;45861;-81
2023/06/07 06:47:20;;;;;;;;;31.00;22.00;;;;;;;;4995954;28;45769;-80
2023/06/07 06:49:45;;;;;;;;;29.33;26.67;;;;;;;;5001810;28;45948;-76
2023/06/07 06:52:11;;;;;;;;;32.00;23.33;;;;;;;;4988892;28;46719;-77
2023/06/07 06:54:36;;;;;;;;;27.00;22.33;;;;;;;;4994503;28;46055;-76
2023/06/07 06:57:01;;;;;;;;;26.33;25.33;;;;;;;;5000621;28;45937;-75
2023/06/07 06:59:27;;;;;;;;;29.00;25.67;;;;;;;;4995820;28;45848;-77
2023/06/07 07:01:54;;;;;;;;;26.33;25.00;;;;;;;;4998260;28;47438;-77
2023/06/07 07:04:20;;;;;;;;;31.67;26.00;;;;;;;;4994227;28;45567;-81
2023/06/07 07:06:45;;;;;;;;;29.00;24.00;;;;;;;;4996579;28;45988;-77
2023/06/07 07:09:12;;;;;;;;;21.00;20.00;;;;;;;;4991829;28;45844;-78
2023/06/07 07:11:37;;;;;;;;;24.00;21.33;;;;;;;;5000363;28;46098;-83
2023/06/07 07:14:03;;;;;;;;;27.00;22.00;;;;;;;;4995902;28;45532;-81
2023/06/07 07:16:30;;;;;;;;;30.00;29.00;;;;;;;;4995734;28;45706;-82
2023/06/07 07:18:56;;;;;;;;;29.00;25.67;;;;;;;;4999412;28;45855;-81
2023/06/07 07:21:21;;;;;;;;;27.33;21.00;;;;;;;;4990798;28;46442;-79
2023/06/07 07:23:47;;;;;;;;;26.67;23.00;;;;;;;;4998075;28;45784;-82
2023/06/07 07:26:12;;;;;;;;;21.00;19.33;;;;;;;;5011237;28;45805;-81
2023/06/07 07:28:37;;;;;;;;;21.67;21.67;;;;;;;;4999389;28;45957;-80
2023/06/07 07:31:03;;;;;;;;;30.00;25.00;;;;;;;;5009018;28;46522;-82
2023/06/07 07:33:28;;;;;;;;;25.33;23.00;;;;;;;;4996480;28;45670;-83
2023/06/07 07:35:56;;;;;;;;;24.33;20.67;;;;;;;;4993379;28;46043;-82
2023/06/07 07:38:23;;;;;;;;;22.67;21.67;;;;;;;;4998858;28;45808;-79
2023/06/07 07:40:48;;;;;;;;;20.33;19.33;;;;;;;;4997153;28;46989;-79
2023/06/07 07:43:13;;;;;;;;;25.33;22.33;;;;;;;;4994733;28;45431;-80
2023/06/07 07:45:39;;;;;;;;;23.33;21.67;;;;;;;;5001144;28;45645;-84
2023/06/07 07:48:05;;;;;;;;;17.00;14.67;;;;;;;;4994996;28;45778;-79
2023/06/07 07:50:37;;;;;;;;;21.67;20.33;;;;;;;;4999286;28;46921;-80
2023/06/07 07:53:03;;;;;;;;;31.00;26.33;;;;;;;;5002429;28;45924;-80
2023/06/07 07:55:28;;;;;;;;;30.33;26.67;;;;;;;;4998899;28;45318;-81
2023/06/07 07:57:55;;;;;;;;;23.33;18.67;;;;;;;;5007380;28;45776;-80
2023/06/07 08:00:21;;;;;;;;;21.00;20.67;;;;;;;;4990256;28;46193;-82
2023/06/07 08:02:47;;;;;;;;;23.67;18.33;;;;;;;;4993803;28;45575;-79
2023/06/07 08:05:12;;;;;;;;;27.67;24.67;;;;;;;;4992092;28;45828;-78
2023/06/07 08:07:38;;;;;;;;;29.00;24.00;;;;;;;;4991530;28;45930;-81
2023/06/07 08:10:04;;;;;;;;;19.33;19.00;;;;;;;;5002157;28;45438;-81
2023/06/07 08:12:35;;;;;;;;;23.33;21.33;;;;;;;;5001744;28;45605;-83
2023/06/07 08:15:01;;;;;;;;;25.67;21.33;;;;;;;;4996862;28;45851;-78
2023/06/07 08:17:26;;;;;;;;;23.33;22.00;;;;;;;;4991098;28;46218;-76
2023/06/07 08:19:52;;;;;;;;;22.33;18.00;;;;;;;;4998117;28;45437;-76
2023/06/07 08:22:17;;;;;;;;;32.33;25.33;;;;;;;;4996512;28;45505;-77
2023/06/07 08:24:42;;;;;;;;;29.33;25.00;;;;;;;;4994115;28;45549;-77
2023/06/07 08:27:10;;;;;;;;;18.00;17.00;;;;;;;;5002726;28;45983;-80
2023/06/07 08:29:35;;;;;;;;;19.67;18.33;;;;;;;;5000033;28;45934;-79
2023/06/07 08:32:01;;;;;;;;;25.00;21.67;;;;;;;;4997753;28;45870;-82
2023/06/07 08:34:29;;;;;;;;;21.67;20.67;;;;;;;;5000007;28;45546;-82
2023/06/07 08:36:55;;;;;;;;;18.33;16.67;;;;;;;;4991665;28;45448;-81
2023/06/07 08:39:23;;;;;;;;;27.33;23.33;;;;;;;;5009427;28;46150;-83
2023/06/07 08:41:49;;;;;;;;;19.67;18.67;;;;;;;;4998771;28;45606;-81
2023/06/07 08:44:17;;;;;;;;;24.00;22.33;;;;;;;;5003885;28;45588;-81
2023/06/07 08:46:42;;;;;;;;;19.67;17.67;;;;;;;;5004612;28;45634;-81
2023/06/07 08:49:10;;;;;;;;;17.67;13.00;;;;;;;;5009341;28;45408;-80
2023/06/07 08:51:36;;;;;;;;;21.00;19.00;;;;;;;;5007808;28;45734;-83
2023/06/07 08:54:03;;;;;;;;;21.00;20.67;;;;;;;;4996677;28;45464;-82
2023/06/07 08:56:29;;;;;;;;;44.67;36.00;;;;;;;;5005543;28;45763;-80
2023/06/07 08:58:58;;;;;;;;;23.00;23.00;;;;;;;;5000181;28;45578;-82
2023/06/07 09:01:38;;;;;;;;;21.33;20.33;;;;;;;;4997775;28;45660;-79
2023/06/07 09:04:06;;;;;;;;;22.67;19.67;;;;;;;;4997874;28;45670;-80
2023/06/07 09:06:34;;;;;;;;;21.00;19.33;;;;;;;;4996337;28;45770;-81
2023/06/07 09:08:59;;;;;;;;;17.33;14.67;;;;;;;;4999281;28;45678;-82
2023/06/07 09:11:25;;;;;;;;;19.00;17.67;;;;;;;;5010511;28;45334;-82
2023/06/07 09:13:50;;;;;;;;;16.33;14.67;;;;;;;;5000618;28;45784;-79
2023/06/07 09:16:16;;;;;;;;;16.00;14.00;;;;;;;;4998248;28;45661;-82
2023/06/07 09:18:44;;;;;;;;;18.33;14.00;;;;;;;;4995655;28;45997;-80
2023/06/07 09:21:21;;;;;;;;;14.67;14.33;;;;;;;;5001390;28;45421;-81
2023/06/07 09:23:46;;;;;;;;;20.67;17.67;;;;;;;;5006677;28;45710;-82
2023/06/07 09:26:11;;;;;;;;;17.33;13.33;;;;;;;;4994421;28;45558;-80
2023/06/07 09:28:37;;;;;;;;;21.67;18.00;;;;;;;;4995923;28;46323;-81
2023/06/07 09:31:04;;;;;;;;;16.67;15.33;;;;;;;;4993620;28;45968;-81
2023/06/07 09:33:35;;;;;;;;;17.33;15.67;;;;;;;;4989131;28;45835;-81
2023/06/07 09:36:12;;;;;;;;;16.33;13.00;;;;;;;;4992278;28;46955;-78
2023/06/07 09:38:38;;;;;;;;;18.33;16.33;;;;;;;;4999486;28;46343;-79
2023/06/07 09:41:09;;;;;;;;;18.67;17.67;;;;;;;;5001100;28;46278;-88
2023/06/07 09:43:54;;;;;;;;;14.67;13.33;;;;;;;;5008376;28;45909;-78
2023/06/07 09:46:20;;;;;;;;;15.00;13.00;;;;;;;;5003266;28;45921;-85
2023/06/07 09:48:45;;;;;;;;;19.67;17.67;;;;;;;;4991348;28;45490;-79
2023/06/07 09:51:11;;;;;;;;;15.67;15.00;;;;;;;;4994443;28;45427;-83
2023/06/07 09:53:54;;;;;;;;;18.33;14.67;;;;;;;;5010380;28;45350;-88
2023/06/07 09:56:22;;;;;;;;;17.33;17.00;;;;;;;;5014533;28;45755;-82
2023/06/07 09:59:07;;;;;;;;;17.33;15.67;;;;;;;;5015908;28;46567;-87
2023/06/07 10:01:54;;;;;;;;;15.33;14.33;;;;;;;;5011571;28;45569;-85
2023/06/07 10:04:19;;;;;;;;;18.33;16.00;;;;;;;;5020642;28;45713;-84
2023/06/07 10:06:45;;;;;;;;;14.67;13.00;;;;;;;;5005919;28;45817;-85
2023/06/07 10:09:11;;;;;;;;;22.00;19.33;;;;;;;;5007497;28;46567;-82
2023/06/07 10:11:43;;;;;;;;;19.67;16.33;;;;;;;;5001998;28;45561;-82
2023/06/07 10:14:20;;;;;;;;;16.00;14.33;;;;;;;;5003231;28;45467;-82
2023/06/07 10:16:55;;;;;;;;;16.00;14.33;;;;;;;;5022448;28;45639;-82
2023/06/07 10:19:35;;;;;;;;;13.33;13.33;;;;;;;;5006608;28;45661;-82
2023/06/07 10:22:04;;;;;;;;;17.67;15.33;;;;;;;;5005000;28;46024;-83
2023/06/07 10:24:41;;;;;;;;;15.00;15.00;;;;;;;;5014189;28;45934;-81
2023/06/07 10:27:12;;;;;;;;;11.67;11.00;;;;;;;;5007976;28;44834;-83
2023/06/07 10:30:01;;;;;;;;;18.33;17.33;;;;;;;;5013400;28;47010;-79
2023/06/07 10:32:31;;;;;;;;;20.00;18.67;;;;;;;;5002073;28;45822;-83
2023/06/07 10:35:06;;;;;;;;;19.67;18.00;;;;;;;;5009802;28;45837;-84
2023/06/07 10:37:35;;;;;;;;;14.00;14.00;;;;;;;;5005938;28;45445;-82
2023/06/07 10:40:05;;;;;;;;;13.33;13.00;;;;;;;;5011250;28;45677;-83
2023/06/07 10:42:32;;;;;;;;;13.00;13.00;;;;;;;;4999970;28;45393;-82
2023/06/07 10:45:11;;;;;;;;;15.67;14.00;;;;;;;;4995207;28;45718;-83
2023/06/07 10:47:37;;;;;;;;;19.33;15.67;;;;;;;;5008723;28;45502;-80
2023/06/07 10:50:02;;;;;;;;;18.33;16.33;;;;;;;;5005581;28;45507;-82
2023/06/07 10:52:28;;;;;;;;;16.00;15.33;;;;;;;;5010066;28;45886;-81
2023/06/07 10:55:11;;;;;;;;;15.00;15.00;;;;;;;;4999522;28;45849;-80
2023/06/07 11:10:49;;;;;;;;;16.00;13.67;;;;;;;;4896736;29;46536;-88
2023/06/07 11:13:53;;;;;;;;;20.67;20.67;;;;;;;;5019998;28;45274;-88
2023/06/07 11:17:08;;;;;;;;;;;;;;;;;;;;;
2023/06/07 11:23:19;;;;;;;;;16.67;14.67;;;;;;;;4986582;28;45608;-88
2023/06/07 11:25:51;;;;;;;;;15.00;15.00;;;;;;;;5004064;28;46135;-88
2023/06/07 11:28:37;;;;;;;;;17.33;16.33;;;;;;;;5006200;28;45906;-86
2023/06/07 11:31:06;;;;;;;;;16.00;14.67;;;;;;;;5011935;28;45545;-87
2023/06/07 11:33:31;;;;;;;;;16.33;14.33;;;;;;;;5015547;28;45545;-87
2023/06/07 11:35:59;;;;;;;;;12.00;11.67;;;;;;;;5014998;28;46689;-87
2023/06/07 11:38:34;;;;;;;;;14.67;14.67;;;;;;;;5001186;28;45471;-84
2023/06/07 11:41:19;;;;;;;;;18.00;13.33;;;;;;;;5013603;28;45490;-86
2023/06/07 11:43:45;;;;;;;;;12.33;10.67;;;;;;;;5007562;28;45476;-87
2023/06/07 11:46:15;;;;;;;;;11.67;11.67;;;;;;;;5006617;28;46377;-87
2023/06/07 11:48:41;;;;;;;;;20.67;16.33;;;;;;;;5015059;28;45875;-83
2023/06/07 11:51:06;;;;;;;;;12.67;12.33;;;;;;;;5012898;28;45445;-86
2023/06/07 11:53:32;;;;;;;;;14.33;14.33;;;;;;;;5002401;28;45481;-84
2023/06/07 11:55:58;;;;;;;;;20.67;17.33;;;;;;;;5008295;28;47857;-86
2023/06/07 11:58:24;;;;;;;;;15.00;14.67;;;;;;;;5007814;28;45410;-82
2023/06/07 12:00:49;;;;;;;;;12.00;9.67;;;;;;;;5013234;28;45623;-82
2023/06/07 12:03:19;;;;;;;;;18.67;14.33;;;;;;;;5000476;28;46253;-80
2023/06/07 12:05:45;;;;;;;;;15.67;13.33;;;;;;;;5006059;28;47006;-82
2023/06/07 12:08:12;;;;;;;;;17.67;13.67;;;;;;;;5002159;28;45590;-82
2023/06/07 12:10:37;;;;;;;;;15.33;14.00;;;;;;;;5010327;28;45803;-80
2023/06/07 12:13:13;;;;;;;;;19.67;15.33;;;;;;;;4993713;28;46184;-84
2023/06/07 12:15:41;;;;;;;;;13.33;10.67;;;;;;;;5005300;28;47077;-80
2023/06/07 12:18:10;;;;;;;;;17.33;17.33;;;;;;;;4992712;28;45831;-81
2023/06/07 12:20:35;;;;;;;;;16.33;16.33;;;;;;;;4995488;28;45896;-81
2023/06/07 12:23:04;;;;;;;;;15.00;12.33;;;;;;;;5010353;28;45467;-82
2023/06/07 12:25:29;;;;;;;;;16.33;12.67;;;;;;;;4993662;28;47496;-81
2023/06/07 12:27:55;;;;;;;;;14.00;13.00;;;;;;;;4999763;28;45708;-83
2023/06/07 12:30:20;;;;;;;;;6.00;6.00;;;;;;;;4992791;28;45456;-83
2023/06/07 12:32:46;;;;;;;;;21.33;16.33;;;;;;;;4994674;28;45814;-83
2023/06/07 12:35:30;;;;;;;;;16.00;16.00;;;;;;;;5001239;28;47098;-83
2023/06/07 12:37:55;;;;;;;;;16.67;15.00;;;;;;;;5001582;28;45715;-82
2023/06/07 12:40:20;;;;;;;;;14.00;14.00;;;;;;;;5000371;28;45825;-84
2023/06/07 12:42:46;;;;;;;;;14.00;14.00;;;;;;;;5012422;28;45555;-80
2023/06/07 12:45:11;;;;;;;;;15.00;12.33;;;;;;;;5001339;28;45871;-82
2023/06/07 12:47:37;;;;;;;;;14.33;14.00;;;;;;;;4997725;28;45708;-82
2023/06/07 12:50:48;;;;;;;;;13.67;13.67;;;;;;;;4999208;28;46031;-85
2023/06/07 12:53:07;;;;;;;;;15.33;15.33;;;;;;;;5002296;28;45531;-83
2023/06/07 12:55:32;;;;;;;;;12.67;12.67;;;;;;;;4993574;28;45714;-84
2023/06/07 12:57:59;;;;;;;;;15.00;15.00;;;;;;;;5004258;28;45838;-84
2023/06/07 13:01:02;;;;;;;;;15.00;14.00;;;;;;;;4999475;28;45433;-85
2023/06/07 13:03:29;;;;;;;;;12.33;12.33;;;;;;;;5000731;28;46106;-86
2023/06/07 13:05:55;;;;;;;;;16.67;16.00;;;;;;;;4997791;28;45816;-83
2023/06/07 13:08:20;;;;;;;;;11.67;11.67;;;;;;;;5001975;28;45777;-81
2023/06/07 13:10:46;;;;;;;;;14.67;14.33;;;;;;;;5001328;28;45835;-83
2023/06/07 13:13:14;;;;;;;;;13.00;13.00;;;;;;;;4993972;28;45416;-85
2023/06/07 13:15:42;;;;;;;;;12.00;11.33;;;;;;;;4993188;28;45998;-82
2023/06/07 13:18:07;;;;;;;;;14.67;14.67;;;;;;;;4993043;28;45647;-82
2023/06/07 13:20:33;;;;;;;;;12.67;12.67;;;;;;;;5001508;28;45814;-82
2023/06/07 13:22:58;;;;;;;;;15.00;14.33;;;;;;;;4990518;28;46169;-82
2023/06/07 13:25:23;;;;;;;;;15.33;11.33;;;;;;;;4994849;28;45907;-83
2023/06/07 13:27:50;;;;;;;;;18.00;15.00;;;;;;;;4991737;28;45563;-83
2023/06/07 13:30:16;;;;;;;;;14.33;12.67;;;;;;;;4993467;28;45876;-83
2023/06/07 13:32:42;;;;;;;;;13.33;12.33;;;;;;;;4997665;28;46067;-83
2023/06/07 13:35:10;;;;;;;;;9.67;9.67;;;;;;;;4994891;28;45590;-81
2023/06/07 13:37:41;;;;;;;;;19.00;17.67;;;;;;;;4993845;28;45700;-81
2023/06/07 13:40:08;;;;;;;;;11.67;11.33;;;;;;;;4992425;28;45663;-78
2023/06/07 13:42:34;;;;;;;;;16.00;16.00;;;;;;;;4998336;28;46283;-79
2023/06/07 13:44:59;;;;;;;;;13.00;13.00;;;;;;;;4993514;28;45822;-80
2023/06/07 13:47:26;;;;;;;;;17.67;13.67;;;;;;;;4996954;28;45802;-78
2023/06/07 13:49:52;;;;;;;;;14.67;12.67;;;;;;;;4995933;28;45725;-80
2023/06/07 13:52:17;;;;;;;;;16.00;12.67;;;;;;;;4994156;28;46537;-82
2023/06/07 13:54:54;;;;;;;;;16.00;16.00;;;;;;;;5014152;28;45522;-82
2023/06/07 13:57:20;;;;;;;;;14.33;14.33;;;;;;;;5004305;28;45543;-81
2023/06/07 13:59:45;;;;;;;;;17.67;15.00;;;;;;;;5002050;28;45984;-82
2023/06/07 14:02:13;;;;;;;;;17.67;14.33;;;;;;;;4994356;28;46757;-80
2023/06/07 14:04:38;;;;;;;;;17.33;16.00;;;;;;;;5000590;28;45416;-80
2023/06/07 14:07:08;;;;;;;;;11.67;10.33;;;;;;;;5000263;28;45399;-81
2023/06/07 14:09:33;;;;;;;;;19.33;16.33;;;;;;;;5010661;28;45798;-80
2023/06/07 14:11:58;;;;;;;;;11.67;10.00;;;;;;;;5012344;28;45761;-81
2023/06/07 14:14:24;;;;;;;;;16.67;14.00;;;;;;;;5004729;28;45586;-82
2023/06/07 14:16:51;;;;;;;;;14.67;12.67;;;;;;;;5005840;28;45440;-81
2023/06/07 14:19:17;;;;;;;;;13.33;12.33;;;;;;;;4996619;28;45452;-81
2023/06/07 14:21:42;;;;;;;;;11.33;11.33;;;;;;;;5005023;28;46518;-79
2023/06/07 14:24:07;;;;;;;;;12.67;12.67;;;;;;;;5002858;28;46414;-80
2023/06/07 14:26:34;;;;;;;;;12.00;11.33;;;;;;;;4994804;28;45405;-83
2023/06/07 14:28:59;;;;;;;;;14.67;13.00;;;;;;;;4997072;28;45427;-82
2023/06/07 14:31:24;;;;;;;;;15.00;14.00;;;;;;;;5002416;28;45906;-83
2023/06/07 14:33:53;;;;;;;;;14.00;11.33;;;;;;;;5003483;28;45503;-83
2023/06/07 14:36:18;;;;;;;;;13.33;11.67;;;;;;;;4996055;28;45835;-82
2023/06/07 14:38:46;;;;;;;;;11.00;9.67;;;;;;;;4994960;28;45502;-82